sensor_id;sensor_type;location;lat;lon;timestamp;pressure;altitude;pressure_sealevel;temperature;humidity
24788;BME280;12883;52.662;5.196;2022-10-31T00:01:30;101978.69;;;13.53;100.00
24788;BME280;12883;52.662;5.196;2022-10-31T00:03:55;101980.97;;;13.56;100.00
24788;BME280;12883;52.662;5.196;2022-10-31T00:06:22;101977.66;;;13.54;100.00
24788;BME280;12883;52.662;5.196;2022-10-31T00:08:52;101973.16;;;13.54;100.00
24788;BME280;12883;52.662;5.196;2022-10-31T00:11:17;101976.59;;;13.48;100.00
24788;BME280;12883;52.662;5.196;2022-10-31T00:13:43;101975.84;;;13.54;100.00
24788;BME280;12883;52.662;5.196;2022-10-31T00:16:19;101984.09;;;13.59;100.00
24788;BME280;12883;52.662;5.196;2022-10-31T00:18:49;101988.03;;;13.63;100.00
24788;BME280;12883;52.662;5.196;2022-10-31T00:21:14;101985.47;;;13.55;100.00
24788;BME280;12883;52.662;5.196;2022-10-31T00:23:40;101946.03;;;13.30;100.00
24788;BME280;12883;52.662;5.196;2022-10-31T00:26:05;101984.19;;;13.51;100.00
24788;BME280;12883;52.662;5.196;2022-10-31T00:28:32;101994.63;;;13.46;100.00
24788;BME280;12883;52.662;5.196;2022-10-31T00:30:59;101985.41;;;13.49;100.00
24788;BME280;12883;52.662;5.196;2022-10-31T00:33:25;101974.38;;;13.52;100.00
24788;BME280;12883;52.662;5.196;2022-10-31T00:35:50;101815.22;;;12.54;100.00
24788;BME280;12883;52.662;5.196;2022-10-31T00:38:15;101993.44;;;13.49;100.00
24788;BME280;12883;52.662;5.196;2022-10-31T00:40:41;101994.84;;;13.51;100.00
24788;BME280;12883;52.662;5.196;2022-10-31T00:43:06;101992.75;;;13.47;100.00
24788;BME280;12883;52.662;5.196;2022-10-31T00:45:31;102001.22;;;13.50;100.00
24788;BME280;12883;52.662;5.196;2022-10-31T00:47:57;101990.31;;;13.45;100.00
24788;BME280;12883;52.662;5.196;2022-10-31T00:50:22;101983.06;;;13.39;100.00
24788;BME280;12883;52.662;5.196;2022-10-31T00:52:47;101998.50;;;13.44;100.00
24788;BME280;12883;52.662;5.196;2022-10-31T00:55:13;101998.50;;;13.44;100.00
24788;BME280;12883;52.662;5.196;2022-10-31T00:57:38;101977.06;;;13.37;100.00
24788;BME280;12883;52.662;5.196;2022-10-31T01:00:04;101959.16;;;13.10;100.00
24788;BME280;12883;52.662;5.196;2022-10-31T01:02:29;101996.75;;;13.36;100.00
24788;BME280;12883;52.662;5.196;2022-10-31T01:04:55;101987.72;;;13.37;100.00
24788;BME280;12883;52.662;5.196;2022-10-31T01:07:20;101992.25;;;13.37;100.00
24788;BME280;12883;52.662;5.196;2022-10-31T01:09:45;102000.53;;;13.42;100.00
24788;BME280;12883;52.662;5.196;2022-10-31T01:12:11;101998.59;;;13.36;100.00
24788;BME280;12883;52.662;5.196;2022-10-31T01:14:36;101999.19;;;13.31;100.00
24788;BME280;12883;52.662;5.196;2022-10-31T01:17:01;101975.66;;;13.20;100.00
24788;BME280;12883;52.662;5.196;2022-10-31T01:19:27;101997.94;;;13.34;100.00
24788;BME280;12883;52.662;5.196;2022-10-31T01:21:54;101987.28;;;13.34;100.00
24788;BME280;12883;52.662;5.196;2022-10-31T01:24:20;101997.41;;;13.38;100.00
24788;BME280;12883;52.662;5.196;2022-10-31T01:26:45;101988.41;;;13.25;100.00
24788;BME280;12883;52.662;5.196;2022-10-31T01:29:11;101991.97;;;13.32;100.00
24788;BME280;12883;52.662;5.196;2022-10-31T01:31:39;102001.63;;;13.33;100.00
24788;BME280;12883;52.662;5.196;2022-10-31T01:34:05;102004.97;;;13.35;100.00
24788;BME280;12883;52.662;5.196;2022-10-31T01:36:35;101999.53;;;13.28;100.00
24788;BME280;12883;52.662;5.196;2022-10-31T01:39:04;101996.13;;;13.34;100.00
24788;BME280;12883;52.662;5.196;2022-10-31T01:41:33;101991.63;;;13.35;100.00
24788;BME280;12883;52.662;5.196;2022-10-31T01:44:47;101971.38;;;13.05;100.00
24788;BME280;12883;52.662;5.196;2022-10-31T01:46:56;101991.81;;;13.19;100.00
24788;BME280;12883;52.662;5.196;2022-10-31T01:52:01;101988.66;;;13.09;100.00
24788;BME280;12883;52.662;5.196;2022-10-31T01:54:33;101990.38;;;13.16;100.00
24788;BME280;12883;52.662;5.196;2022-10-31T01:57:00;101992.84;;;13.18;100.00
24788;BME280;12883;52.662;5.196;2022-10-31T01:59:30;101980.38;;;13.04;100.00
24788;BME280;12883;52.662;5.196;2022-10-31T02:01:57;101980.03;;;13.07;100.00
24788;BME280;12883;52.662;5.196;2022-10-31T02:04:24;101959.25;;;12.88;100.00
24788;BME280;12883;52.662;5.196;2022-10-31T02:07:02;101981.41;;;13.03;100.00
24788;BME280;12883;52.662;5.196;2022-10-31T02:09:30;101985.97;;;12.94;100.00
24788;BME280;12883;52.662;5.196;2022-10-31T02:11:58;101984.00;;;12.96;100.00
24788;BME280;12883;52.662;5.196;2022-10-31T02:14:26;101982.88;;;13.05;100.00
24788;BME280;12883;52.662;5.196;2022-10-31T02:16:53;101983.03;;;12.89;100.00
24788;BME280;12883;52.662;5.196;2022-10-31T02:22:26;101978.91;;;12.87;100.00
24788;BME280;12883;52.662;5.196;2022-10-31T02:33:57;101977.34;;;12.78;100.00
24788;BME280;12883;52.662;5.196;2022-10-31T02:36:40;101978.06;;;12.72;100.00
24788;BME280;12883;52.662;5.196;2022-10-31T02:39:22;101978.63;;;12.67;100.00
24788;BME280;12883;52.662;5.196;2022-10-31T02:44:31;101982.84;;;12.62;100.00
24788;BME280;12883;52.662;5.196;2022-10-31T02:47:03;101980.47;;;12.67;100.00
24788;BME280;12883;52.662;5.196;2022-10-31T02:49:48;101983.59;;;12.70;100.00
24788;BME280;12883;52.662;5.196;2022-10-31T02:52:21;101983.16;;;12.67;100.00
24788;BME280;12883;52.662;5.196;2022-10-31T02:54:47;101989.75;;;12.56;100.00
24788;BME280;12883;52.662;5.196;2022-10-31T02:57:14;101973.88;;;12.48;100.00
24788;BME280;12883;52.662;5.196;2022-10-31T02:59:47;101976.63;;;12.55;100.00
24788;BME280;12883;52.662;5.196;2022-10-31T03:10:40;101975.72;;;12.62;100.00
24788;BME280;12883;52.662;5.196;2022-10-31T03:15:36;101980.63;;;12.51;100.00
24788;BME280;12883;52.662;5.196;2022-10-31T03:18:08;101983.59;;;12.56;100.00
24788;BME280;12883;52.662;5.196;2022-10-31T03:20:40;101988.72;;;12.43;100.00
24788;BME280;12883;52.662;5.196;2022-10-31T03:23:09;101986.97;;;12.50;100.00
24788;BME280;12883;52.662;5.196;2022-10-31T03:25:36;101965.94;;;12.26;100.00
24788;BME280;12883;52.662;5.196;2022-10-31T03:28:04;101977.16;;;12.36;100.00
24788;BME280;12883;52.662;5.196;2022-10-31T03:30:33;101988.38;;;12.46;100.00
24788;BME280;12883;52.662;5.196;2022-10-31T03:33:03;101993.88;;;12.44;100.00
24788;BME280;12883;52.662;5.196;2022-10-31T03:35:30;101994.50;;;12.32;100.00
24788;BME280;12883;52.662;5.196;2022-10-31T03:37:58;101991.47;;;12.35;100.00
24788;BME280;12883;52.662;5.196;2022-10-31T03:40:26;101975.66;;;12.33;100.00
24788;BME280;12883;52.662;5.196;2022-10-31T03:43:00;101982.47;;;12.36;100.00
24788;BME280;12883;52.662;5.196;2022-10-31T03:45:30;101968.16;;;12.22;100.00
24788;BME280;12883;52.662;5.196;2022-10-31T03:47:57;101957.50;;;12.22;100.00
24788;BME280;12883;52.662;5.196;2022-10-31T03:50:27;101992.56;;;12.40;100.00
24788;BME280;12883;52.662;5.196;2022-10-31T03:53:03;101949.78;;;12.13;100.00
24788;BME280;12883;52.662;5.196;2022-10-31T03:55:35;101978.78;;;12.37;100.00
24788;BME280;12883;52.662;5.196;2022-10-31T03:58:10;101986.69;;;12.30;100.00
24788;BME280;12883;52.662;5.196;2022-10-31T04:00:40;101960.47;;;12.27;100.00
24788;BME280;12883;52.662;5.196;2022-10-31T04:03:17;101976.72;;;12.47;100.00
24788;BME280;12883;52.662;5.196;2022-10-31T04:05:46;101973.03;;;12.48;100.00
24788;BME280;12883;52.662;5.196;2022-10-31T04:08:17;101978.75;;;12.45;100.00
24788;BME280;12883;52.662;5.196;2022-10-31T04:10:44;101980.47;;;12.38;100.00
24788;BME280;12883;52.662;5.196;2022-10-31T04:13:16;101965.03;;;12.33;100.00
24788;BME280;12883;52.662;5.196;2022-10-31T04:15:44;101982.50;;;12.50;100.00
24788;BME280;12883;52.662;5.196;2022-10-31T04:18:10;101986.44;;;12.40;100.00
24788;BME280;12883;52.662;5.196;2022-10-31T04:20:38;101919.97;;;12.03;100.00
24788;BME280;12883;52.662;5.196;2022-10-31T04:23:04;101982.75;;;12.41;100.00
24788;BME280;12883;52.662;5.196;2022-10-31T04:25:30;101990.56;;;12.42;100.00
24788;BME280;12883;52.662;5.196;2022-10-31T04:27:55;101983.78;;;12.40;100.00
24788;BME280;12883;52.662;5.196;2022-10-31T04:30:21;101963.13;;;12.42;100.00
24788;BME280;12883;52.662;5.196;2022-10-31T04:32:46;101981.56;;;12.58;100.00
24788;BME280;12883;52.662;5.196;2022-10-31T04:35:12;101951.91;;;12.32;100.00
24788;BME280;12883;52.662;5.196;2022-10-31T04:37:37;101983.31;;;12.51;100.00
24788;BME280;12883;52.662;5.196;2022-10-31T04:40:03;101965.31;;;12.38;100.00
24788;BME280;12883;52.662;5.196;2022-10-31T04:42:30;101982.66;;;12.49;100.00
24788;BME280;12883;52.662;5.196;2022-10-31T04:44:55;101977.06;;;12.44;100.00
24788;BME280;12883;52.662;5.196;2022-10-31T04:47:20;101987.16;;;12.63;100.00
24788;BME280;12883;52.662;5.196;2022-10-31T04:49:46;101989.50;;;12.66;100.00
24788;BME280;12883;52.662;5.196;2022-10-31T04:52:12;101992.16;;;12.66;100.00
24788;BME280;12883;52.662;5.196;2022-10-31T04:54:37;101996.47;;;12.67;100.00
24788;BME280;12883;52.662;5.196;2022-10-31T04:57:03;101992.97;;;12.66;100.00
24788;BME280;12883;52.662;5.196;2022-10-31T04:59:28;101934.22;;;12.39;100.00
24788;BME280;12883;52.662;5.196;2022-10-31T05:01:53;101988.72;;;12.72;100.00
24788;BME280;12883;52.662;5.196;2022-10-31T05:04:19;101989.38;;;12.74;100.00
24788;BME280;12883;52.662;5.196;2022-10-31T05:06:44;102000.19;;;12.58;100.00
24788;BME280;12883;52.662;5.196;2022-10-31T05:09:09;101988.81;;;12.64;100.00
24788;BME280;12883;52.662;5.196;2022-10-31T05:11:35;101989.50;;;12.66;100.00
24788;BME280;12883;52.662;5.196;2022-10-31T05:14:00;101996.25;;;12.68;100.00
24788;BME280;12883;52.662;5.196;2022-10-31T05:16:25;101989.03;;;12.62;100.00
24788;BME280;12883;52.662;5.196;2022-10-31T05:18:51;101990.13;;;12.68;100.00
24788;BME280;12883;52.662;5.196;2022-10-31T05:21:16;101981.75;;;12.71;100.00
24788;BME280;12883;52.662;5.196;2022-10-31T05:23:41;101986.81;;;12.66;100.00
24788;BME280;12883;52.662;5.196;2022-10-31T05:26:07;101914.19;;;12.28;100.00
24788;BME280;12883;52.662;5.196;2022-10-31T05:28:32;101931.25;;;12.19;100.00
24788;BME280;12883;52.662;5.196;2022-10-31T05:30:57;101977.34;;;12.49;100.00
24788;BME280;12883;52.662;5.196;2022-10-31T05:33:23;101974.59;;;12.42;100.00
24788;BME280;12883;52.662;5.196;2022-10-31T05:35:48;101961.38;;;12.49;100.00
24788;BME280;12883;52.662;5.196;2022-10-31T05:38:13;101955.50;;;12.53;100.00
24788;BME280;12883;52.662;5.196;2022-10-31T05:40:39;101961.53;;;12.47;100.00
24788;BME280;12883;52.662;5.196;2022-10-31T05:43:04;101966.41;;;12.44;100.00
24788;BME280;12883;52.662;5.196;2022-10-31T05:45:30;101960.63;;;12.40;100.00
24788;BME280;12883;52.662;5.196;2022-10-31T05:48:00;101958.41;;;12.44;100.00
24788;BME280;12883;52.662;5.196;2022-10-31T05:50:28;101970.94;;;12.43;100.00
24788;BME280;12883;52.662;5.196;2022-10-31T05:52:56;101964.03;;;12.49;100.00
24788;BME280;12883;52.662;5.196;2022-10-31T05:55:22;101969.88;;;12.30;100.00
24788;BME280;12883;52.662;5.196;2022-10-31T05:57:47;101966.25;;;12.31;100.00
24788;BME280;12883;52.662;5.196;2022-10-31T06:00:13;101949.44;;;12.30;100.00
24788;BME280;12883;52.662;5.196;2022-10-31T06:02:38;101968.69;;;12.32;100.00
24788;BME280;12883;52.662;5.196;2022-10-31T06:05:03;101956.88;;;12.35;100.00
24788;BME280;12883;52.662;5.196;2022-10-31T06:07:35;101941.06;;;12.19;100.00
24788;BME280;12883;52.662;5.196;2022-10-31T06:10:03;101957.13;;;12.25;100.00
24788;BME280;12883;52.662;5.196;2022-10-31T06:12:28;101940.63;;;12.15;100.00
24788;BME280;12883;52.662;5.196;2022-10-31T06:14:54;101945.56;;;12.47;100.00
24788;BME280;12883;52.662;5.196;2022-10-31T06:17:19;101949.06;;;12.33;100.00
24788;BME280;12883;52.662;5.196;2022-10-31T06:19:44;101959.16;;;12.23;100.00
24788;BME280;12883;52.662;5.196;2022-10-31T06:22:10;101947.16;;;12.27;100.00
24788;BME280;12883;52.662;5.196;2022-10-31T06:24:37;101948.34;;;12.25;100.00
24788;BME280;12883;52.662;5.196;2022-10-31T06:27:02;101941.75;;;12.35;100.00
24788;BME280;12883;52.662;5.196;2022-10-31T06:29:27;101948.50;;;12.23;100.00
24788;BME280;12883;52.662;5.196;2022-10-31T06:31:53;101952.81;;;12.24;100.00
24788;BME280;12883;52.662;5.196;2022-10-31T06:34:18;101944.75;;;12.18;100.00
24788;BME280;12883;52.662;5.196;2022-10-31T06:36:45;101947.66;;;12.23;100.00
24788;BME280;12883;52.662;5.196;2022-10-31T06:39:11;101928.94;;;12.02;100.00
24788;BME280;12883;52.662;5.196;2022-10-31T06:41:36;101957.38;;;12.16;100.00
24788;BME280;12883;52.662;5.196;2022-10-31T06:44:02;101955.09;;;12.13;100.00
24788;BME280;12883;52.662;5.196;2022-10-31T06:46:27;101961.53;;;12.18;100.00
24788;BME280;12883;52.662;5.196;2022-10-31T06:48:52;101947.19;;;12.19;100.00
24788;BME280;12883;52.662;5.196;2022-10-31T06:51:18;101948.03;;;12.20;100.00
24788;BME280;12883;52.662;5.196;2022-10-31T06:53:43;101957.97;;;12.26;100.00
24788;BME280;12883;52.662;5.196;2022-10-31T06:56:09;101954.19;;;12.35;100.00
24788;BME280;12883;52.662;5.196;2022-10-31T06:58:34;101973.22;;;12.32;100.00
24788;BME280;12883;52.662;5.196;2022-10-31T07:01:00;101932.47;;;12.17;100.00
24788;BME280;12883;52.662;5.196;2022-10-31T07:03:26;101948.78;;;12.14;100.00
24788;BME280;12883;52.662;5.196;2022-10-31T07:05:51;101960.91;;;12.45;100.00
24788;BME280;12883;52.662;5.196;2022-10-31T07:08:16;101959.25;;;12.44;100.00
24788;BME280;12883;52.662;5.196;2022-10-31T07:10:42;101962.09;;;12.43;100.00
24788;BME280;12883;52.662;5.196;2022-10-31T07:13:13;101965.69;;;12.50;100.00
24788;BME280;12883;52.662;5.196;2022-10-31T07:15:40;101940.69;;;12.22;100.00
24788;BME280;12883;52.662;5.196;2022-10-31T07:18:07;101927.69;;;12.27;100.00
24788;BME280;12883;52.662;5.196;2022-10-31T07:20:33;101963.75;;;12.58;100.00
24788;BME280;12883;52.662;5.196;2022-10-31T07:22:59;101966.50;;;12.65;100.00
24788;BME280;12883;52.662;5.196;2022-10-31T07:25:25;101958.97;;;12.68;100.00
24788;BME280;12883;52.662;5.196;2022-10-31T07:27:51;101957.72;;;12.64;100.00
24788;BME280;12883;52.662;5.196;2022-10-31T07:30:16;101967.25;;;12.73;100.00
24788;BME280;12883;52.662;5.196;2022-10-31T07:32:44;101936.84;;;12.53;100.00
24788;BME280;12883;52.662;5.196;2022-10-31T07:35:21;101977.63;;;12.83;100.00
24788;BME280;12883;52.662;5.196;2022-10-31T07:37:47;101980.09;;;12.84;100.00
24788;BME280;12883;52.662;5.196;2022-10-31T07:40:13;101976.50;;;12.92;100.00
24788;BME280;12883;52.662;5.196;2022-10-31T07:42:41;101977.50;;;12.91;100.00
24788;BME280;12883;52.662;5.196;2022-10-31T07:45:11;101972.56;;;12.88;100.00
24788;BME280;12883;52.662;5.196;2022-10-31T07:47:41;101980.09;;;12.99;100.00
24788;BME280;12883;52.662;5.196;2022-10-31T07:50:07;101986.91;;;13.01;100.00
24788;BME280;12883;52.662;5.196;2022-10-31T07:52:33;101991.59;;;13.14;100.00
24788;BME280;12883;52.662;5.196;2022-10-31T07:54:58;101987.00;;;13.08;100.00
24788;BME280;12883;52.662;5.196;2022-10-31T07:57:23;101983.31;;;13.09;100.00
24788;BME280;12883;52.662;5.196;2022-10-31T07:59:49;101996.53;;;13.17;100.00
24788;BME280;12883;52.662;5.196;2022-10-31T08:02:14;102001.94;;;13.23;100.00
24788;BME280;12883;52.662;5.196;2022-10-31T08:04:39;101988.69;;;13.30;100.00
24788;BME280;12883;52.662;5.196;2022-10-31T08:07:05;101995.09;;;13.35;100.00
24788;BME280;12883;52.662;5.196;2022-10-31T08:09:30;101988.56;;;13.38;100.00
24788;BME280;12883;52.662;5.196;2022-10-31T08:11:55;101986.53;;;13.40;100.00
24788;BME280;12883;52.662;5.196;2022-10-31T08:14:21;101991.88;;;13.40;100.00
24788;BME280;12883;52.662;5.196;2022-10-31T08:16:47;101994.75;;;13.59;100.00
24788;BME280;12883;52.662;5.196;2022-10-31T08:19:13;101990.19;;;13.53;100.00
24788;BME280;12883;52.662;5.196;2022-10-31T08:21:38;101984.09;;;13.59;100.00
24788;BME280;12883;52.662;5.196;2022-10-31T08:24:04;101989.88;;;13.63;100.00
24788;BME280;12883;52.662;5.196;2022-10-31T08:26:29;101986.81;;;13.66;100.00
24788;BME280;12883;52.662;5.196;2022-10-31T08:28:54;101994.06;;;13.72;100.00
24788;BME280;12883;52.662;5.196;2022-10-31T08:31:20;101967.38;;;13.72;100.00
24788;BME280;12883;52.662;5.196;2022-10-31T08:33:46;101914.06;;;13.51;100.00
24788;BME280;12883;52.662;5.196;2022-10-31T08:36:11;101974.63;;;13.78;100.00
24788;BME280;12883;52.662;5.196;2022-10-31T08:38:37;101979.88;;;13.92;100.00
24788;BME280;12883;52.662;5.196;2022-10-31T08:41:02;101976.00;;;13.95;100.00
24788;BME280;12883;52.662;5.196;2022-10-31T08:43:27;101978.91;;;14.00;100.00
24788;BME280;12883;52.662;5.196;2022-10-31T08:45:53;101988.09;;;13.91;100.00
24788;BME280;12883;52.662;5.196;2022-10-31T08:48:20;101966.88;;;13.83;100.00
24788;BME280;12883;52.662;5.196;2022-10-31T08:50:46;101964.97;;;13.77;100.00
24788;BME280;12883;52.662;5.196;2022-10-31T08:53:15;101979.69;;;13.94;100.00
24788;BME280;12883;52.662;5.196;2022-10-31T08:55:42;101972.19;;;14.04;100.00
24788;BME280;12883;52.662;5.196;2022-10-31T08:58:14;101991.09;;;14.09;100.00
24788;BME280;12883;52.662;5.196;2022-10-31T09:00:41;101987.19;;;14.05;100.00
24788;BME280;12883;52.662;5.196;2022-10-31T09:03:11;101976.38;;;14.13;100.00
24788;BME280;12883;52.662;5.196;2022-10-31T09:05:37;101977.81;;;14.15;100.00
24788;BME280;12883;52.662;5.196;2022-10-31T09:08:04;101981.50;;;14.14;100.00
24788;BME280;12883;52.662;5.196;2022-10-31T09:10:31;101963.78;;;14.07;100.00
24788;BME280;12883;52.662;5.196;2022-10-31T09:12:58;101975.22;;;14.22;100.00
24788;BME280;12883;52.662;5.196;2022-10-31T09:15:25;101961.09;;;14.28;100.00
24788;BME280;12883;52.662;5.196;2022-10-31T09:17:50;101963.38;;;14.31;100.00
24788;BME280;12883;52.662;5.196;2022-10-31T09:20:16;101965.69;;;14.40;100.00
24788;BME280;12883;52.662;5.196;2022-10-31T09:22:41;101945.53;;;14.38;100.00
24788;BME280;12883;52.662;5.196;2022-10-31T09:25:07;101952.78;;;14.44;100.00
24788;BME280;12883;52.662;5.196;2022-10-31T09:27:32;101959.13;;;14.43;100.00
24788;BME280;12883;52.662;5.196;2022-10-31T09:29:58;101942.25;;;14.36;100.00
24788;BME280;12883;52.662;5.196;2022-10-31T09:32:23;101951.13;;;14.43;100.00
24788;BME280;12883;52.662;5.196;2022-10-31T09:34:48;101950.97;;;14.51;100.00
24788;BME280;12883;52.662;5.196;2022-10-31T09:37:14;101954.75;;;14.63;100.00
24788;BME280;12883;52.662;5.196;2022-10-31T09:39:39;101926.28;;;14.42;100.00
24788;BME280;12883;52.662;5.196;2022-10-31T09:45:07;101949.81;;;14.66;100.00
24788;BME280;12883;52.662;5.196;2022-10-31T09:50:40;101939.66;;;14.89;100.00
24788;BME280;12883;52.662;5.196;2022-10-31T09:55:55;101907.28;;;14.65;100.00
24788;BME280;12883;52.662;5.196;2022-10-31T09:58:28;101941.50;;;14.88;100.00
24788;BME280;12883;52.662;5.196;2022-10-31T10:00:58;101928.50;;;14.73;100.00
24788;BME280;12883;52.662;5.196;2022-10-31T10:03:37;101900.69;;;14.61;100.00
24788;BME280;12883;52.662;5.196;2022-10-31T10:06:14;101928.94;;;14.82;100.00
24788;BME280;12883;52.662;5.196;2022-10-31T10:08:41;101892.69;;;14.61;100.00
24788;BME280;12883;52.662;5.196;2022-10-31T10:11:22;101927.34;;;14.94;100.00
24788;BME280;12883;52.662;5.196;2022-10-31T10:20:18;101925.94;;;15.05;100.00
24788;BME280;12883;52.662;5.196;2022-10-31T10:25:24;101920.03;;;15.22;100.00
24788;BME280;12883;52.662;5.196;2022-10-31T10:30:23;101893.44;;;15.01;100.00
24788;BME280;12883;52.662;5.196;2022-10-31T10:32:56;101916.28;;;15.10;100.00
24788;BME280;12883;52.662;5.196;2022-10-31T10:35:42;101910.09;;;15.03;100.00
24788;BME280;12883;52.662;5.196;2022-10-31T10:38:34;101905.56;;;14.97;100.00
24788;BME280;12883;52.662;5.196;2022-10-31T10:41:03;101908.84;;;14.99;100.00
24788;BME280;12883;52.662;5.196;2022-10-31T10:43:33;101896.91;;;14.95;100.00
24788;BME280;12883;52.662;5.196;2022-10-31T10:57:56;101886.22;;;14.95;100.00
24788;BME280;12883;52.662;5.196;2022-10-31T11:00:25;101887.88;;;14.96;100.00
24788;BME280;12883;52.662;5.196;2022-10-31T11:02:51;101873.72;;;15.02;100.00
24788;BME280;12883;52.662;5.196;2022-10-31T11:05:42;101869.19;;;15.09;100.00
24788;BME280;12883;52.662;5.196;2022-10-31T11:08:10;101871.44;;;15.12;100.00
24788;BME280;12883;52.662;5.196;2022-10-31T11:10:35;101866.75;;;15.14;100.00
24788;BME280;12883;52.662;5.196;2022-10-31T11:15:56;101853.19;;;15.22;100.00
24788;BME280;12883;52.662;5.196;2022-10-31T11:18:23;101847.22;;;15.27;100.00
24788;BME280;12883;52.662;5.196;2022-10-31T11:20:55;101841.88;;;15.33;100.00
24788;BME280;12883;52.662;5.196;2022-10-31T11:23:22;101845.41;;;15.40;100.00
24788;BME280;12883;52.662;5.196;2022-10-31T11:26:01;101824.84;;;15.34;100.00
24788;BME280;12883;52.662;5.196;2022-10-31T11:28:28;101837.16;;;15.42;100.00
24788;BME280;12883;52.662;5.196;2022-10-31T11:30:57;101833.69;;;15.48;100.00
24788;BME280;12883;52.662;5.196;2022-10-31T11:33:32;101815.38;;;15.51;100.00
24788;BME280;12883;52.662;5.196;2022-10-31T11:36:09;101816.19;;;15.58;100.00
24788;BME280;12883;52.662;5.196;2022-10-31T11:38:40;101809.41;;;15.62;100.00
24788;BME280;12883;52.662;5.196;2022-10-31T11:41:18;101800.13;;;15.71;100.00
24788;BME280;12883;52.662;5.196;2022-10-31T11:43:56;101794.09;;;15.82;100.00
24788;BME280;12883;52.662;5.196;2022-10-31T11:46:49;101795.13;;;15.94;100.00
24788;BME280;12883;52.662;5.196;2022-10-31T11:49:25;101786.84;;;16.02;100.00
24788;BME280;12883;52.662;5.196;2022-10-31T11:51:56;101781.31;;;15.97;100.00
24788;BME280;12883;52.662;5.196;2022-10-31T11:57:31;101785.16;;;16.14;100.00
24788;BME280;12883;52.662;5.196;2022-10-31T11:59:59;101777.97;;;16.08;100.00
24788;BME280;12883;52.662;5.196;2022-10-31T12:02:26;101778.41;;;16.05;100.00
24788;BME280;12883;52.662;5.196;2022-10-31T12:05:21;101731.69;;;15.88;100.00
24788;BME280;12883;52.662;5.196;2022-10-31T12:07:45;101763.38;;;15.98;100.00
24788;BME280;12883;52.662;5.196;2022-10-31T12:10:11;101757.44;;;15.89;100.00
24788;BME280;12883;52.662;5.196;2022-10-31T12:26:09;101756.59;;;15.95;100.00
24788;BME280;12883;52.662;5.196;2022-10-31T12:38:01;101731.78;;;16.19;100.00
24788;BME280;12883;52.662;5.196;2022-10-31T12:43:23;101716.13;;;16.23;100.00
24788;BME280;12883;52.662;5.196;2022-10-31T12:45:55;101705.91;;;16.00;100.00
24788;BME280;12883;52.662;5.196;2022-10-31T12:59:38;101701.66;;;15.86;100.00
24788;BME280;12883;52.662;5.196;2022-10-31T13:05:00;101698.31;;;15.97;100.00
24788;BME280;12883;52.662;5.196;2022-10-31T13:07:49;101682.66;;;15.94;100.00
24788;BME280;12883;52.662;5.196;2022-10-31T13:10:32;101676.66;;;15.99;100.00
24788;BME280;12883;52.662;5.196;2022-10-31T13:13:07;101665.63;;;15.89;100.00
24788;BME280;12883;52.662;5.196;2022-10-31T13:15:47;101671.56;;;15.97;100.00
24788;BME280;12883;52.662;5.196;2022-10-31T13:18:31;101628.16;;;15.82;100.00
24788;BME280;12883;52.662;5.196;2022-10-31T13:20:59;101658.56;;;15.94;100.00
24788;BME280;12883;52.662;5.196;2022-10-31T13:23:36;101649.50;;;16.02;100.00
24788;BME280;12883;52.662;5.196;2022-10-31T13:26:38;101643.69;;;16.05;100.00
24788;BME280;12883;52.662;5.196;2022-10-31T13:29:15;101640.56;;;16.14;100.00
24788;BME280;12883;52.662;5.196;2022-10-31T13:31:42;101630.03;;;16.19;100.00
24788;BME280;12883;52.662;5.196;2022-10-31T13:39:44;101628.97;;;16.20;100.00
24788;BME280;12883;52.662;5.196;2022-10-31T13:44:46;101604.44;;;16.23;100.00
24788;BME280;12883;52.662;5.196;2022-10-31T13:47:22;101604.78;;;16.33;100.00
24788;BME280;12883;52.662;5.196;2022-10-31T13:49:48;101601.59;;;16.18;100.00
24788;BME280;12883;52.662;5.196;2022-10-31T13:52:23;101598.31;;;16.16;100.00
24788;BME280;12883;52.662;5.196;2022-10-31T13:54:51;101590.13;;;16.11;100.00
24788;BME280;12883;52.662;5.196;2022-10-31T13:59:58;101533.47;;;15.83;100.00
24788;BME280;12883;52.662;5.196;2022-10-31T14:02:31;101581.19;;;16.17;100.00
24788;BME280;12883;52.662;5.196;2022-10-31T14:05:03;101571.69;;;16.21;100.00
24788;BME280;12883;52.662;5.196;2022-10-31T14:07:29;101570.00;;;16.27;100.00
24788;BME280;12883;52.662;5.196;2022-10-31T14:10:03;101564.44;;;16.28;100.00
24788;BME280;12883;52.662;5.196;2022-10-31T14:12:37;101562.78;;;16.27;100.00
24788;BME280;12883;52.662;5.196;2022-10-31T14:17:48;101547.78;;;16.26;100.00
24788;BME280;12883;52.662;5.196;2022-10-31T14:22:41;101515.22;;;15.98;100.00
24788;BME280;12883;52.662;5.196;2022-10-31T14:25:33;101538.50;;;16.22;100.00
24788;BME280;12883;52.662;5.196;2022-10-31T14:28:01;101523.88;;;16.25;100.00
24788;BME280;12883;52.662;5.196;2022-10-31T14:30:28;101521.75;;;16.09;100.00
24788;BME280;12883;52.662;5.196;2022-10-31T14:33:01;101515.47;;;16.21;100.00
24788;BME280;12883;52.662;5.196;2022-10-31T14:44:23;101500.31;;;16.09;100.00
24788;BME280;12883;52.662;5.196;2022-10-31T14:47:13;101492.19;;;15.97;100.00
24788;BME280;12883;52.662;5.196;2022-10-31T14:52:21;101493.94;;;16.10;100.00
24788;BME280;12883;52.662;5.196;2022-10-31T14:54:51;101497.19;;;16.12;100.00
24788;BME280;12883;52.662;5.196;2022-10-31T14:57:23;101432.25;;;15.67;100.00
24788;BME280;12883;52.662;5.196;2022-10-31T14:59:57;101497.28;;;15.99;100.00
24788;BME280;12883;52.662;5.196;2022-10-31T15:03:11;101483.44;;;16.08;100.00